createdAt,value
2018-09-22T00:00:59.875Z,1.47
2018-09-22T00:03:29.574Z,1.47
2018-09-22T00:05:59.250Z,1.30
2018-09-22T00:08:28.950Z,1.52
2018-09-22T00:10:58.646Z,1.37
2018-09-22T00:13:28.345Z,1.12
2018-09-22T00:15:58.011Z,1.47
2018-09-22T00:18:27.697Z,1.60
2018-09-22T00:20:57.427Z,1.57
2018-09-22T00:23:27.128Z,1.47
2018-09-22T00:25:56.794Z,1.52
2018-09-22T00:28:26.526Z,1.52
2018-09-22T00:30:56.191Z,1.42
2018-09-22T00:33:25.895Z,1.75
2018-09-22T00:35:55.619Z,1.60
2018-09-22T00:38:25.306Z,1.70
2018-09-22T00:40:55.014Z,1.45
2018-09-22T00:43:24.704Z,1.60
2018-09-22T00:45:54.390Z,1.50
2018-09-22T00:48:24.107Z,1.80
2018-09-22T00:50:53.783Z,1.20
2018-09-22T00:53:23.504Z,1.70
2018-09-22T00:55:53.235Z,1.60
2018-09-22T00:58:22.989Z,1.62
2018-09-22T01:00:52.690Z,1.70
2018-09-22T01:03:22.384Z,1.70
2018-09-22T01:05:52.088Z,1.65
2018-09-22T01:08:21.755Z,1.70
2018-09-22T01:10:51.478Z,1.57
2018-09-22T01:13:21.146Z,1.45
2018-09-22T01:15:50.905Z,1.70
2018-09-22T01:18:20.743Z,1.65
2018-09-22T01:20:50.502Z,1.80
2018-09-22T01:23:20.180Z,1.82
2018-09-22T01:25:49.867Z,1.85
2018-09-22T01:28:19.551Z,2.15
2018-09-22T01:30:49.250Z,1.75
2018-09-22T01:33:18.926Z,1.65
2018-09-22T01:35:48.610Z,1.80
2018-09-22T01:38:18.291Z,1.65
2018-09-22T01:40:47.981Z,1.45
2018-09-22T01:43:17.779Z,1.80
2018-09-22T01:45:47.499Z,1.82
2018-09-22T01:48:17.247Z,1.70
2018-09-22T01:50:46.964Z,1.40
2018-09-22T01:53:16.986Z,1.80
2018-09-22T01:55:46.700Z,1.87
2018-09-22T01:58:16.370Z,1.55
2018-09-22T02:00:46.054Z,1.70
2018-09-22T02:03:15.724Z,1.77
2018-09-22T02:05:45.720Z,1.62
2018-09-22T02:08:16.076Z,1.57
2018-09-22T02:10:46.162Z,1.85
2018-09-22T02:13:16.239Z,1.77
2018-09-22T02:15:46.161Z,1.72
2018-09-22T02:18:15.855Z,2.12
2018-09-22T02:20:45.886Z,2.00
2018-09-22T02:23:15.666Z,1.70
2018-09-22T02:25:45.355Z,1.67
2018-09-22T02:28:15.102Z,1.70
2018-09-22T02:30:44.796Z,1.60
2018-09-22T02:33:14.463Z,1.40
2018-09-22T02:35:44.172Z,1.35
2018-09-22T02:38:13.839Z,1.60
2018-09-22T02:40:43.567Z,1.62
2018-09-22T02:43:13.286Z,1.52
2018-09-22T02:45:42.983Z,1.40
2018-09-22T02:48:12.648Z,1.72
2018-09-22T02:50:42.350Z,1.40
2018-09-22T02:53:12.006Z,1.40
2018-09-22T02:55:41.731Z,1.42
2018-09-22T02:58:11.393Z,1.77
2018-09-22T03:00:41.100Z,1.62
2018-09-22T03:03:10.817Z,1.67
2018-09-22T03:05:40.548Z,1.47
2018-09-22T03:08:10.569Z,1.50
2018-09-22T03:10:40.324Z,1.35
2018-09-22T03:13:10.020Z,1.50
2018-09-22T03:15:39.724Z,1.30
2018-09-22T03:18:09.406Z,1.20
2018-09-22T03:20:39.109Z,1.42
2018-09-22T03:23:08.811Z,1.67
2018-09-22T03:25:38.491Z,1.52
2018-09-22T03:28:08.203Z,1.95
2018-09-22T03:30:37.935Z,1.30
2018-09-22T03:33:07.626Z,1.50
2018-09-22T03:35:37.312Z,1.40
2018-09-22T03:38:06.996Z,1.60
2018-09-22T03:40:36.706Z,1.40
2018-09-22T03:43:06.445Z,1.47
2018-09-22T03:45:36.123Z,1.55
2018-09-22T03:48:06.094Z,1.25
2018-09-22T03:50:35.776Z,1.25
2018-09-22T03:53:05.767Z,1.50
2018-09-22T03:55:35.422Z,1.30
2018-09-22T03:58:05.503Z,1.40
2018-09-22T04:00:35.182Z,1.50
2018-09-22T04:03:05.289Z,1.40
2018-09-22T04:05:34.958Z,1.60
2018-09-22T04:08:05.050Z,1.42
2018-09-22T04:10:34.767Z,1.40
2018-09-22T04:13:04.563Z,1.50
2018-09-22T04:15:34.275Z,1.65
2018-09-22T04:18:03.967Z,1.47
2018-09-22T04:20:33.647Z,1.30
2018-09-22T04:23:03.634Z,1.40
2018-09-22T04:25:34.328Z,1.30
2018-09-22T04:28:04.475Z,1.50
2018-09-22T04:30:34.751Z,1.45
2018-09-22T04:33:04.557Z,1.30
2018-09-22T04:35:34.429Z,1.40
2018-09-22T04:38:04.178Z,1.20
2018-09-22T04:40:33.903Z,1.15
2018-09-22T04:43:03.643Z,1.20
2018-09-22T04:45:33.471Z,1.20
2018-09-22T04:48:03.178Z,1.20
2018-09-22T04:50:33.130Z,1.50
2018-09-22T04:53:03.171Z,1.42
2018-09-22T04:55:33.259Z,1.57
2018-09-22T04:58:02.967Z,1.20
2018-09-22T05:00:32.998Z,1.27
2018-09-22T05:03:03.922Z,1.42
2018-09-22T05:05:33.664Z,1.20
2018-09-22T05:08:03.405Z,1.00
2018-09-22T05:10:33.104Z,1.37
2018-09-22T05:13:02.834Z,1.22
2018-09-22T05:15:32.502Z,1.30
2018-09-22T05:18:02.275Z,1.27
2018-09-22T05:20:31.975Z,1.45
2018-09-22T05:23:01.699Z,1.22
2018-09-22T05:25:31.404Z,1.20
2018-09-22T05:28:01.127Z,1.37
2018-09-22T05:30:30.807Z,1.30
2018-09-22T05:33:00.531Z,1.25
2018-09-22T05:35:30.240Z,1.30
2018-09-22T05:38:06.004Z,1.40
2018-09-22T05:40:35.731Z,1.40
2018-09-22T05:43:05.611Z,1.10
2018-09-22T05:45:35.295Z,1.22
2018-09-22T05:48:05.107Z,1.50
2018-09-22T05:50:34.758Z,1.20
2018-09-22T05:53:04.491Z,1.47
2018-09-22T05:55:34.186Z,1.45
2018-09-22T05:58:04.111Z,1.60
2018-09-22T06:00:39.690Z,1.50
2018-09-22T06:03:10.582Z,1.65
2018-09-22T06:05:40.291Z,1.67
2018-09-22T06:08:10.359Z,1.77
2018-09-22T06:10:40.050Z,1.50
2018-09-22T06:13:09.735Z,1.35
2018-09-22T06:15:39.415Z,1.47
2018-09-22T06:18:09.147Z,1.57
2018-09-22T06:20:38.843Z,1.47
2018-09-22T06:23:08.988Z,1.87
2018-09-22T06:25:38.895Z,1.32
2018-09-22T06:28:08.587Z,1.37
2018-09-22T06:30:38.275Z,1.60
2018-09-22T06:33:08.063Z,1.62
2018-09-22T06:35:39.061Z,1.92
2018-09-22T06:38:09.162Z,1.40
2018-09-22T06:40:38.855Z,1.27
2018-09-22T06:43:08.658Z,1.37
2018-09-22T06:45:38.356Z,1.47
2018-09-22T06:48:08.206Z,1.60
2018-09-22T06:50:37.891Z,1.40
2018-09-22T06:53:07.895Z,1.62
2018-09-22T06:55:38.118Z,1.60
2018-09-22T06:58:08.187Z,1.42
2018-09-22T07:00:37.875Z,1.50
2018-09-22T07:03:07.595Z,1.45
2018-09-22T07:05:37.280Z,1.77
2018-09-22T07:08:07.045Z,2.08
2018-09-22T07:10:36.791Z,1.50
2018-09-22T07:13:06.665Z,1.62
2018-09-22T07:15:36.467Z,1.20
2018-09-22T07:18:06.459Z,1.47
2018-09-22T07:20:36.239Z,1.60
2018-09-22T07:23:11.367Z,1.32
2018-09-22T07:25:41.751Z,1.67
2018-09-22T07:28:13.062Z,1.47
2018-09-22T07:30:42.997Z,1.77
2018-09-22T07:33:12.859Z,1.57
2018-09-22T07:35:45.248Z,1.65
2018-09-22T07:38:15.400Z,1.77
2018-09-22T07:40:45.224Z,1.80
2018-09-22T07:43:14.911Z,1.40
2018-09-22T07:45:44.685Z,1.50
2018-09-22T07:48:14.548Z,1.70
2018-09-22T07:50:44.263Z,1.42
2018-09-22T07:53:13.921Z,1.25
2018-09-22T07:55:43.916Z,1.42
2018-09-22T07:58:13.618Z,1.37
2018-09-22T08:00:43.537Z,1.37
2018-09-22T08:03:13.230Z,1.65
2018-09-22T08:05:42.904Z,1.30
2018-09-22T08:08:12.607Z,2.08
2018-09-22T08:10:42.323Z,1.67
2018-09-22T08:13:11.991Z,1.17
2018-09-22T08:15:41.683Z,1.32
2018-09-22T08:18:11.419Z,1.07
2018-09-22T08:20:41.123Z,1.62
2018-09-22T08:23:10.843Z,1.40
2018-09-22T08:25:40.542Z,1.80
2018-09-22T08:28:10.267Z,1.85
2018-09-22T08:30:40.038Z,1.40
2018-09-22T08:33:09.782Z,1.45
2018-09-22T08:35:39.539Z,1.40
2018-09-22T08:38:09.206Z,1.40
2018-09-22T08:40:38.929Z,2.35
2018-09-22T08:43:08.629Z,1.70
2018-09-22T08:45:40.266Z,1.57
2018-09-22T08:48:09.979Z,1.40
2018-09-22T08:50:39.999Z,1.55
2018-09-22T08:53:09.693Z,1.35
2018-09-22T08:55:39.404Z,1.80
2018-09-22T08:58:09.142Z,1.22
2018-09-22T09:00:38.856Z,1.40
2018-09-22T09:03:08.607Z,1.42
2018-09-22T09:05:38.361Z,1.35
2018-09-22T09:08:08.343Z,1.30
2018-09-22T09:10:38.070Z,1.50
2018-09-22T09:13:08.130Z,1.17
2018-09-22T09:15:37.911Z,1.40
2018-09-22T09:18:07.948Z,1.52
2018-09-22T09:20:37.662Z,1.20
2018-09-22T09:23:07.714Z,1.07
2018-09-22T09:25:37.395Z,1.15
2018-09-22T09:28:07.083Z,1.27
2018-09-22T09:30:36.798Z,1.50
2018-09-22T09:33:06.502Z,1.30
2018-09-22T09:35:36.292Z,1.25
2018-09-22T09:38:05.990Z,1.90
2018-09-22T09:40:35.703Z,1.62
2018-09-22T09:43:05.402Z,1.60
2018-09-22T09:45:35.153Z,1.27
2018-09-22T09:48:04.900Z,1.55
2018-09-22T09:50:34.637Z,1.50
2018-09-22T09:53:04.381Z,1.27
2018-09-22T09:55:34.060Z,1.52
2018-09-22T09:58:03.782Z,1.40
2018-09-22T10:00:38.937Z,1.37
2018-09-22T10:03:09.387Z,1.70
2018-09-22T10:05:39.141Z,1.40
2018-09-22T10:08:08.899Z,1.72
2018-09-22T10:10:39.671Z,1.42
2018-09-22T10:13:11.469Z,1.35
2018-09-22T10:15:43.350Z,1.30
2018-09-22T10:18:15.474Z,1.55
2018-09-22T10:20:45.748Z,1.60
2018-09-22T10:23:15.462Z,1.30
2018-09-22T10:25:45.294Z,1.50
2018-09-22T10:28:15.028Z,1.47
2018-09-22T10:30:45.235Z,1.35
2018-09-22T10:33:14.990Z,1.55
2018-09-22T10:35:44.680Z,1.20
2018-09-22T10:38:14.406Z,1.52
2018-09-22T10:40:44.112Z,1.67
2018-09-22T10:43:13.824Z,1.22
2018-09-22T10:45:43.603Z,1.37
2018-09-22T10:48:13.314Z,1.45
2018-09-22T10:50:43.010Z,1.40
2018-09-22T10:53:12.703Z,1.65
2018-09-22T10:55:42.409Z,1.50
2018-09-22T10:58:12.237Z,1.40
2018-09-22T11:00:41.973Z,1.30
2018-09-22T11:03:11.688Z,1.20
2018-09-22T11:05:41.566Z,1.57
2018-09-22T11:08:11.250Z,1.30
2018-09-22T11:10:40.955Z,1.52
2018-09-22T11:13:10.667Z,2.20
2018-09-22T11:15:40.361Z,1.52
2018-09-22T11:18:10.086Z,1.27
2018-09-22T11:20:39.817Z,1.27
2018-09-22T11:23:09.516Z,1.27
2018-09-22T11:25:39.225Z,0.93
2018-09-22T11:28:08.963Z,1.02
2018-09-22T11:30:38.708Z,1.07
2018-09-22T11:33:08.781Z,1.12
2018-09-22T11:35:38.446Z,1.27
2018-09-22T11:38:08.119Z,1.30
2018-09-22T11:40:37.782Z,1.17
2018-09-22T11:43:07.655Z,1.32
2018-09-22T11:45:37.338Z,1.70
2018-09-22T11:48:07.021Z,1.00
2018-09-22T11:50:36.688Z,1.40
2018-09-22T11:53:06.779Z,1.30
2018-09-22T11:55:36.435Z,1.37
2018-09-22T11:58:06.169Z,1.20
2018-09-22T12:00:35.834Z,1.12
2018-09-22T12:03:05.606Z,1.20
2018-09-22T12:05:35.266Z,1.20
2018-09-22T12:08:04.971Z,1.22
2018-09-22T12:10:34.712Z,1.35
2018-09-22T12:13:04.405Z,1.47
2018-09-22T12:15:34.055Z,1.72
2018-09-22T12:18:03.746Z,1.02
2018-09-22T12:20:33.419Z,1.02
2018-09-22T12:23:03.124Z,1.40
2018-09-22T12:25:32.786Z,1.00
2018-09-22T12:28:02.496Z,0.88
2018-09-22T12:30:32.206Z,1.35
2018-09-22T12:33:02.075Z,1.05
2018-09-22T12:35:31.761Z,1.20
2018-09-22T12:38:01.437Z,0.90
2018-09-22T12:40:31.106Z,1.10
2018-09-22T12:43:00.769Z,1.47
2018-09-22T12:45:30.470Z,1.55
2018-09-22T12:48:00.137Z,1.32
2018-09-22T12:50:29.830Z,1.00
2018-09-22T12:52:59.511Z,1.20
2018-09-22T12:55:29.223Z,1.30
2018-09-22T12:57:59.091Z,1.42
2018-09-22T13:00:28.793Z,1.47
2018-09-22T13:02:58.786Z,1.27
2018-09-22T13:05:28.666Z,0.98
2018-09-22T13:07:58.380Z,2.12
2018-09-22T13:10:28.503Z,1.30
2018-09-22T13:12:58.164Z,1.22
2018-09-22T13:15:27.854Z,1.42
2018-09-22T13:17:57.551Z,1.00
2018-09-22T13:20:27.267Z,1.20
2018-09-22T13:22:56.906Z,2.30
2018-09-22T13:25:26.623Z,1.60
2018-09-22T13:27:56.268Z,1.15
2018-09-22T13:30:25.947Z,0.82
2018-09-22T13:32:55.614Z,2.10
2018-09-22T13:35:25.302Z,0.98
2018-09-22T13:37:55.003Z,0.95
2018-09-22T13:40:24.693Z,1.27
2018-09-22T13:42:54.358Z,1.00
2018-09-22T13:45:24.047Z,0.93
2018-09-22T13:47:53.741Z,1.00
2018-09-22T13:50:23.438Z,1.27
2018-09-22T13:52:53.099Z,1.20
2018-09-22T13:55:22.842Z,1.35
2018-09-22T13:57:52.506Z,1.22
2018-09-22T14:00:22.210Z,0.85
2018-09-22T14:02:52.268Z,1.05
2018-09-22T14:05:21.951Z,1.17
2018-09-22T14:07:51.627Z,0.90
2018-09-22T14:10:21.381Z,1.00
2018-09-22T14:12:51.226Z,1.20
2018-09-22T14:15:20.923Z,1.15
2018-09-22T14:17:50.623Z,1.00
2018-09-22T14:20:20.326Z,1.17
2018-09-22T14:22:49.978Z,1.00
2018-09-22T14:25:19.683Z,1.50
2018-09-22T14:27:49.359Z,1.37
2018-09-22T14:30:19.079Z,1.20
2018-09-22T14:32:48.759Z,1.30
2018-09-22T14:35:18.499Z,1.40
2018-09-22T14:37:48.259Z,1.12
2018-09-22T14:40:17.990Z,1.00
2018-09-22T14:42:47.646Z,1.10
2018-09-22T14:45:21.078Z,0.90
2018-09-22T14:47:50.787Z,1.02
2018-09-22T14:50:20.475Z,1.40
2018-09-22T14:52:50.164Z,1.05
2018-09-22T14:55:19.830Z,0.82
2018-09-22T14:57:49.500Z,0.98
2018-09-22T15:00:19.222Z,1.20
2018-09-22T15:02:48.911Z,1.15
2018-09-22T15:05:18.600Z,1.02
2018-09-22T15:07:48.275Z,0.98
2018-09-22T15:10:18.055Z,1.17
2018-09-22T15:12:47.718Z,0.93
2018-09-22T15:15:17.458Z,1.02
2018-09-22T15:17:47.148Z,0.95
2018-09-22T15:20:16.875Z,1.12
2018-09-22T15:22:46.608Z,1.25
2018-09-22T15:25:16.278Z,1.10
2018-09-22T15:27:45.959Z,1.02
2018-09-22T15:30:15.616Z,0.72
2018-09-22T15:32:45.359Z,1.00
2018-09-22T15:35:15.046Z,1.27
2018-09-22T15:37:44.740Z,1.25
2018-09-22T15:40:14.482Z,1.12
2018-09-22T15:42:44.159Z,1.00
2018-09-22T15:45:19.451Z,1.07
2018-09-22T15:47:49.144Z,0.75
2018-09-22T15:50:18.838Z,0.90
2018-09-22T15:52:48.562Z,1.15
2018-09-22T15:55:18.226Z,1.00
2018-09-22T15:57:47.906Z,0.90
2018-09-22T16:00:17.944Z,0.93
2018-09-22T16:02:47.646Z,1.00
2018-09-22T16:05:17.363Z,1.35
2018-09-22T16:07:47.043Z,1.80
2018-09-22T16:10:16.726Z,1.10
2018-09-22T16:12:46.446Z,1.17
2018-09-22T16:15:16.143Z,1.75
2018-09-22T16:17:45.834Z,1.25
2018-09-22T16:20:15.548Z,1.27
2018-09-22T16:22:45.327Z,1.22
2018-09-22T16:25:14.986Z,1.40
2018-09-22T16:27:44.690Z,11.78
2018-09-22T16:30:14.386Z,10.90
2018-09-22T16:32:44.104Z,10.23
2018-09-22T16:35:13.855Z,4.75
2018-09-22T16:37:43.691Z,1.82
2018-09-22T16:40:13.346Z,4.75
2018-09-22T16:42:43.032Z,3.05
2018-09-22T16:45:18.443Z,3.58
2018-09-22T16:47:48.122Z,1.42
2018-09-22T16:50:17.862Z,1.40
2018-09-22T16:52:47.560Z,1.12
2018-09-22T16:55:17.683Z,1.30
2018-09-22T16:57:47.505Z,1.12
2018-09-22T17:00:17.218Z,1.30
2018-09-22T17:02:47.120Z,1.55
2018-09-22T17:05:16.851Z,1.45
2018-09-22T17:07:46.538Z,1.37
2018-09-22T17:10:16.252Z,1.00
2018-09-22T17:12:46.250Z,1.72
2018-09-22T17:15:15.990Z,1.72
2018-09-22T17:17:45.768Z,1.62
2018-09-22T17:20:15.490Z,2.30
2018-09-22T17:22:45.191Z,1.87
2018-09-22T17:25:15.163Z,1.30
2018-09-22T17:27:44.844Z,1.15
2018-09-22T17:30:14.578Z,1.10
2018-09-22T17:32:44.434Z,1.20
2018-09-22T17:35:14.139Z,1.35
2018-09-22T17:37:43.852Z,1.25
2018-09-22T17:40:13.789Z,1.45
2018-09-22T17:42:43.483Z,1.30
2018-09-22T17:45:13.841Z,1.30
2018-09-22T17:47:43.967Z,1.57
2018-09-22T17:50:13.707Z,1.95
2018-09-22T17:52:43.386Z,1.90
2018-09-22T17:55:13.039Z,1.37
2018-09-22T17:57:42.816Z,2.15
2018-09-22T18:00:12.535Z,2.05
2018-09-22T18:02:42.516Z,1.80
2018-09-22T18:05:12.290Z,1.30
2018-09-22T18:07:42.035Z,1.55
2018-09-22T18:10:12.160Z,1.47
2018-09-22T18:12:42.234Z,1.30
2018-09-22T18:15:11.918Z,1.35
2018-09-22T18:17:41.991Z,1.52
2018-09-22T18:20:11.788Z,1.30
2018-09-22T18:22:41.779Z,1.40
2018-09-22T18:25:11.578Z,1.12
2018-09-22T18:27:41.448Z,1.87
2018-09-22T18:30:11.235Z,1.80
2018-09-22T18:32:40.956Z,3.08
2018-09-22T18:35:10.770Z,1.50
2018-09-22T18:37:40.521Z,1.40
2018-09-22T18:40:10.276Z,1.40
2018-09-22T18:42:40.319Z,1.22
2018-09-22T18:45:15.847Z,1.35
2018-09-22T18:47:45.743Z,1.27
2018-09-22T18:50:15.988Z,1.37
2018-09-22T18:52:45.642Z,1.20
2018-09-22T18:55:15.320Z,1.22
2018-09-22T18:57:44.982Z,1.37
2018-09-22T19:00:14.671Z,1.30
2018-09-22T19:02:45.159Z,1.15
2018-09-22T19:05:15.651Z,1.30
2018-09-22T19:07:45.415Z,1.32
2018-09-22T19:10:15.162Z,1.70
2018-09-22T19:12:44.914Z,1.32
2018-09-22T19:15:18.391Z,1.37
2018-09-22T19:17:55.467Z,1.55
2018-09-22T19:21:02.422Z,1.45
2018-09-22T19:23:36.943Z,1.77
2018-09-22T19:26:10.427Z,1.57
2018-09-22T19:28:45.576Z,1.40
2018-09-22T19:31:18.960Z,1.35
2018-09-22T19:33:52.887Z,1.60
2018-09-22T19:36:29.822Z,1.87
2018-09-22T19:40:03.494Z,1.52
2018-09-22T19:43:36.759Z,1.62
2018-09-22T19:46:10.060Z,2.27
2018-09-22T19:48:46.846Z,2.47
2018-09-22T19:51:18.742Z,2.80
2018-09-22T19:53:50.846Z,2.35
2018-09-22T19:56:20.779Z,2.80
2018-09-22T19:58:50.477Z,2.80
2018-09-22T20:01:20.195Z,2.55
2018-09-22T20:03:49.883Z,2.30
2018-09-22T20:06:20.034Z,2.30
2018-09-22T20:08:49.745Z,1.98
2018-09-22T20:11:19.506Z,1.95
2018-09-22T20:13:49.178Z,2.02
2018-09-22T20:16:18.897Z,1.90
2018-09-22T20:18:49.323Z,1.62
2018-09-22T20:21:19.394Z,1.70
2018-09-22T20:23:49.134Z,1.37
2018-09-22T20:26:19.043Z,1.77
2018-09-22T20:28:48.749Z,2.10
2018-09-22T20:31:18.507Z,1.77
2018-09-22T20:33:48.196Z,1.72
2018-09-22T20:36:19.201Z,1.95
2018-09-22T20:38:50.407Z,1.70
2018-09-22T20:41:21.014Z,1.57
2018-09-22T20:43:51.027Z,2.40
2018-09-22T20:46:22.142Z,1.85
2018-09-22T20:48:51.866Z,1.92
2018-09-22T20:51:21.565Z,2.00
2018-09-22T20:53:51.352Z,2.00
2018-09-22T20:56:21.466Z,2.00
2018-09-22T20:58:51.284Z,1.65
2018-09-22T21:01:20.987Z,1.90
2018-09-22T21:03:50.703Z,1.98
2018-09-22T21:06:20.482Z,1.80
2018-09-22T21:08:50.663Z,1.60
2018-09-22T21:11:20.839Z,1.72
2018-09-22T21:13:50.559Z,1.57
2018-09-22T21:16:20.246Z,1.50
2018-09-22T21:18:49.983Z,1.32
2018-09-22T21:21:19.871Z,1.45
2018-09-22T21:23:49.555Z,1.20
2018-09-22T21:26:20.115Z,1.42
2018-09-22T21:28:49.819Z,1.57
2018-09-22T21:31:19.531Z,1.22
2018-09-22T21:33:49.660Z,1.10
2018-09-22T21:36:19.399Z,1.30
2018-09-22T21:38:49.322Z,1.40
2018-09-22T21:41:19.673Z,1.27
2018-09-22T21:43:51.114Z,1.70
2018-09-22T21:46:21.230Z,1.22
2018-09-22T21:48:51.327Z,1.10
2018-09-22T21:51:21.439Z,1.67
2018-09-22T21:53:51.599Z,1.62
2018-09-22T21:56:21.994Z,1.50
2018-09-22T21:58:51.940Z,2.00
2018-09-22T22:01:27.228Z,2.00
2018-09-22T22:03:56.950Z,2.25
2018-09-22T22:06:26.654Z,1.82
2018-09-22T22:08:57.418Z,1.90
2018-09-22T22:11:27.826Z,1.40
2018-09-22T22:13:59.331Z,1.52
2018-09-22T22:16:29.930Z,1.47
2018-09-22T22:19:00.061Z,1.27
2018-09-22T22:21:30.386Z,1.30
2018-09-22T22:24:00.382Z,1.52
2018-09-22T22:26:30.663Z,1.55
2018-09-22T22:29:00.809Z,1.52
2018-09-22T22:31:30.834Z,1.22
2018-09-22T22:34:01.131Z,1.40
2018-09-22T22:36:30.877Z,1.60
2018-09-22T22:39:01.466Z,1.75
2018-09-22T22:41:32.168Z,1.72
2018-09-22T22:44:02.324Z,1.85
2018-09-22T22:46:32.411Z,2.10
2018-09-22T22:49:02.423Z,1.92
2018-09-22T22:51:33.198Z,1.87
2018-09-22T22:54:03.151Z,1.82
2018-09-22T22:56:32.848Z,1.98
2018-09-22T22:59:04.542Z,1.60
2018-09-22T23:01:34.842Z,1.62
2018-09-22T23:04:04.922Z,1.87
2018-09-22T23:06:34.656Z,1.65
2018-09-22T23:09:05.070Z,1.90
2018-09-22T23:11:34.799Z,1.50
2018-09-22T23:14:04.630Z,1.50
2018-09-22T23:16:34.874Z,1.50
2018-09-22T23:19:05.008Z,1.60
2018-09-22T23:21:34.659Z,1.40
2018-09-22T23:24:04.367Z,2.00
2018-09-22T23:26:34.098Z,1.70
2018-09-22T23:29:04.122Z,2.05
2018-09-22T23:31:34.179Z,2.30
2018-09-22T23:34:04.253Z,2.22
2018-09-22T23:36:34.011Z,2.30
2018-09-22T23:39:03.991Z,1.40
2018-09-22T23:41:34.170Z,1.80
2018-09-22T23:44:03.971Z,2.40
2018-09-22T23:46:33.674Z,1.87
2018-09-22T23:49:03.772Z,2.00
2018-09-22T23:51:33.791Z,2.10
2018-09-22T23:54:03.573Z,1.87
2018-09-22T23:56:33.266Z,2.10
2018-09-22T23:59:03.322Z,1.52
